Chicago, Illinois
Traffic Map
Current Weather Conditions
Chicago, Illinois
Few Clouds
Few Clouds
49°
Feels Like: 45°
Wind Chill: 45° Ceiling: Unl
Heat Index: 49° Visibility: 10mi
Dew Point: 36° Wind: 9mph
Humidity: 61% Direction: 50° (NE)
Pressure: 30.36in Gusts: 0mph
Raw Report DataKMDW 181851Z 05008KT 10SM FEW250 09/02 A3036 RMK AO2 SLP283 T00940022
Traffic Incident Summary
Active as of:
Severity:
Category:
InformationThere was an issue retrieving the traffic information for this location. Please try a different location or try again shortly.
Advertisements
At Last! Intellicast now available for iPhone and Android